sensor_id;sensor_type;location;lat;lon;timestamp;pressure;altitude;pressure_sealevel;temperature;humidity
57248;BME280;55809;46.618;10.764;2022-09-09T00:00:18;92831.88;;;16.01;77.96
57248;BME280;55809;46.618;10.764;2022-09-09T00:02:53;92827.19;;;16.01;78.19
57248;BME280;55809;46.618;10.764;2022-09-09T00:05:29;92822.97;;;16.00;78.14
57248;BME280;55809;46.618;10.764;2022-09-09T00:07:59;92815.44;;;15.91;78.53
57248;BME280;55809;46.618;10.764;2022-09-09T00:10:31;92824.69;;;15.94;78.61
57248;BME280;55809;46.618;10.764;2022-09-09T00:13:05;92816.94;;;15.92;78.32
57248;BME280;55809;46.618;10.764;2022-09-09T00:15:38;92810.75;;;15.92;78.38
57248;BME280;55809;46.618;10.764;2022-09-09T00:18:16;92799.56;;;15.90;78.44
57248;BME280;55809;46.618;10.764;2022-09-09T00:20:52;92801.81;;;15.91;78.60
57248;BME280;55809;46.618;10.764;2022-09-09T00:23:24;92800.97;;;15.94;78.32
57248;BME280;55809;46.618;10.764;2022-09-09T00:26:01;92802.91;;;15.94;78.37
57248;BME280;55809;46.618;10.764;2022-09-09T00:28:30;92806.84;;;15.93;78.01
57248;BME280;55809;46.618;10.764;2022-09-09T00:31:04;92802.59;;;15.92;78.13
57248;BME280;55809;46.618;10.764;2022-09-09T00:33:36;92793.34;;;15.89;78.22
57248;BME280;55809;46.618;10.764;2022-09-09T00:36:13;92799.56;;;15.90;78.33
57248;BME280;55809;46.618;10.764;2022-09-09T00:38:44;92800.41;;;15.87;78.36
57248;BME280;55809;46.618;10.764;2022-09-09T00:41:17;92794.53;;;15.88;78.19
57248;BME280;55809;46.618;10.764;2022-09-09T00:43:53;92797.69;;;15.87;78.02
57248;BME280;55809;46.618;10.764;2022-09-09T00:46:38;92796.06;;;15.89;77.50
57248;BME280;55809;46.618;10.764;2022-09-09T00:49:15;92787.91;;;15.89;77.70
57248;BME280;55809;46.618;10.764;2022-09-09T00:51:55;92778.84;;;15.92;77.73
57248;BME280;55809;46.618;10.764;2022-09-09T00:54:43;92789.97;;;15.98;77.65
57248;BME280;55809;46.618;10.764;2022-09-09T00:57:23;92782.78;;;15.91;78.36
57248;BME280;55809;46.618;10.764;2022-09-09T00:59:58;92795.09;;;15.83;78.18
57248;BME280;55809;46.618;10.764;2022-09-09T01:02:32;92795.97;;;15.93;78.59
57248;BME280;55809;46.618;10.764;2022-09-09T01:05:10;92799.84;;;15.79;79.23
57248;BME280;55809;46.618;10.764;2022-09-09T01:07:44;92794.31;;;15.70;79.31
57248;BME280;55809;46.618;10.764;2022-09-09T01:10:21;92794.31;;;15.70;79.56
57248;BME280;55809;46.618;10.764;2022-09-09T01:12:54;92776.97;;;15.64;79.48
57248;BME280;55809;46.618;10.764;2022-09-09T01:15:26;92789.66;;;15.83;80.10
57248;BME280;55809;46.618;10.764;2022-09-09T01:18:02;92787.69;;;15.84;81.45
57248;BME280;55809;46.618;10.764;2022-09-09T01:20:49;92782.53;;;15.86;81.46
57248;BME280;55809;46.618;10.764;2022-09-09T01:26:25;92784.50;;;15.85;80.13
57248;BME280;55809;46.618;10.764;2022-09-09T01:28:52;92790.28;;;15.87;79.91
57248;BME280;55809;46.618;10.764;2022-09-09T01:31:23;92791.06;;;15.88;79.69
57248;BME280;55809;46.618;10.764;2022-09-09T01:33:51;92786.06;;;15.86;79.55
57248;BME280;55809;46.618;10.764;2022-09-09T01:36:24;92796.06;;;15.89;79.43
57248;BME280;55809;46.618;10.764;2022-09-09T01:38:53;92800.31;;;15.90;79.99
57248;BME280;55809;46.618;10.764;2022-09-09T01:41:21;92792.44;;;15.92;80.61
57248;BME280;55809;46.618;10.764;2022-09-09T01:43:49;92794.88;;;15.90;80.90
57248;BME280;55809;46.618;10.764;2022-09-09T01:46:17;92791.06;;;15.88;80.66
57248;BME280;55809;46.618;10.764;2022-09-09T01:48:46;92791.81;;;15.88;80.92
57248;BME280;55809;46.618;10.764;2022-09-09T01:51:13;92771.88;;;15.79;81.43
57248;BME280;55809;46.618;10.764;2022-09-09T01:53:41;92788.31;;;15.88;81.89
57248;BME280;55809;46.618;10.764;2022-09-09T01:56:18;92796.16;;;15.86;82.42
57248;BME280;55809;46.618;10.764;2022-09-09T01:59:01;92802.38;;;15.86;82.18
57248;BME280;55809;46.618;10.764;2022-09-09T02:01:44;92796.06;;;15.89;82.47
57248;BME280;55809;46.618;10.764;2022-09-09T02:04:24;92796.84;;;15.90;82.01
57248;BME280;55809;46.618;10.764;2022-09-09T02:06:56;92798.00;;;15.89;82.07
57248;BME280;55809;46.618;10.764;2022-09-09T02:09:25;92808.47;;;15.90;82.50
57248;BME280;55809;46.618;10.764;2022-09-09T02:11:58;92804.25;;;15.89;83.47
57248;BME280;55809;46.618;10.764;2022-09-09T02:14:32;92792.38;;;15.83;83.28
57248;BME280;55809;46.618;10.764;2022-09-09T02:17:05;92805.97;;;15.96;81.83
57248;BME280;55809;46.618;10.764;2022-09-09T02:19:37;92791.91;;;15.85;82.07
57248;BME280;55809;46.618;10.764;2022-09-09T02:22:06;92783.88;;;15.81;82.67
57248;BME280;55809;46.618;10.764;2022-09-09T02:24:39;92780.16;;;15.75;83.50
57248;BME280;55809;46.618;10.764;2022-09-09T02:27:07;92789.41;;;15.78;83.65
57248;BME280;55809;46.618;10.764;2022-09-09T02:29:40;92787.78;;;15.80;84.14
57248;BME280;55809;46.618;10.764;2022-09-09T02:32:11;92796.25;;;15.82;84.39
57248;BME280;55809;46.618;10.764;2022-09-09T02:34:43;92796.59;;;15.84;84.13
57248;BME280;55809;46.618;10.764;2022-09-09T02:37:12;92799.44;;;15.81;82.61
57248;BME280;55809;46.618;10.764;2022-09-09T02:39:42;92806.72;;;15.84;81.06
57248;BME280;55809;46.618;10.764;2022-09-09T02:42:09;92802.50;;;15.83;80.88
57248;BME280;55809;46.618;10.764;2022-09-09T02:44:38;92811.84;;;15.82;81.15
57248;BME280;55809;46.618;10.764;2022-09-09T02:47:13;92813.69;;;15.85;81.08
57248;BME280;55809;46.618;10.764;2022-09-09T02:49:51;92780.44;;;15.52;81.12
57248;BME280;55809;46.618;10.764;2022-09-09T02:52:27;92816.84;;;15.83;80.65
57248;BME280;55809;46.618;10.764;2022-09-09T02:55:00;92803.56;;;15.85;80.60
57248;BME280;55809;46.618;10.764;2022-09-09T02:57:31;92801.19;;;15.87;80.56
57248;BME280;55809;46.618;10.764;2022-09-09T03:00:03;92797.25;;;15.88;80.69
57248;BME280;55809;46.618;10.764;2022-09-09T03:02:30;92788.78;;;15.86;81.36
57248;BME280;55809;46.618;10.764;2022-09-09T03:04:57;92785.38;;;15.82;81.75
57248;BME280;55809;46.618;10.764;2022-09-09T03:07:24;92789.75;;;15.80;81.42
57248;BME280;55809;46.618;10.764;2022-09-09T03:09:52;92791.50;;;15.86;81.01
57248;BME280;55809;46.618;10.764;2022-09-09T03:12:20;92791.91;;;15.85;81.14
57248;BME280;55809;46.618;10.764;2022-09-09T03:14:47;92790.63;;;15.89;82.34
57248;BME280;55809;46.618;10.764;2022-09-09T03:17:15;92787.91;;;15.89;81.94
57248;BME280;55809;46.618;10.764;2022-09-09T03:19:42;92803.34;;;15.80;82.89
57248;BME280;55809;46.618;10.764;2022-09-09T03:22:10;92771.94;;;15.37;84.02
57248;BME280;55809;46.618;10.764;2022-09-09T03:24:39;92791.06;;;15.46;84.96
57248;BME280;55809;46.618;10.764;2022-09-09T03:27:05;92790.22;;;15.49;85.73
57248;BME280;55809;46.618;10.764;2022-09-09T03:29:32;92786.50;;;15.43;86.75
57248;BME280;55809;46.618;10.764;2022-09-09T03:31:59;92794.44;;;15.37;86.99
57248;BME280;55809;46.618;10.764;2022-09-09T03:34:28;92764.25;;;15.19;86.32
57248;BME280;55809;46.618;10.764;2022-09-09T03:36:55;92791.72;;;15.37;86.79
57248;BME280;55809;46.618;10.764;2022-09-09T03:39:22;92781.16;;;15.39;86.50
57248;BME280;55809;46.618;10.764;2022-09-09T03:41:49;92779.44;;;15.45;86.02
57248;BME280;55809;46.618;10.764;2022-09-09T03:44:16;92775.00;;;15.52;85.55
57248;BME280;55809;46.618;10.764;2022-09-09T03:46:43;92771.41;;;15.55;85.64
57248;BME280;55809;46.618;10.764;2022-09-09T03:49:10;92760.53;;;15.55;85.97
57248;BME280;55809;46.618;10.764;2022-09-09T03:51:39;92751.25;;;15.52;85.70
57248;BME280;55809;46.618;10.764;2022-09-09T03:54:06;92743.56;;;15.51;85.09
57248;BME280;55809;46.618;10.764;2022-09-09T03:56:35;92738.53;;;15.49;84.93
57248;BME280;55809;46.618;10.764;2022-09-09T03:59:02;92732.56;;;15.54;84.64
57248;BME280;55809;46.618;10.764;2022-09-09T04:01:29;92743.00;;;15.56;84.77
57248;BME280;55809;46.618;10.764;2022-09-09T04:03:56;92736.91;;;15.52;85.52
57248;BME280;55809;46.618;10.764;2022-09-09T04:06:24;92705.00;;;15.27;85.23
57248;BME280;55809;46.618;10.764;2022-09-09T04:08:53;92729.63;;;15.48;84.93
57248;BME280;55809;46.618;10.764;2022-09-09T04:11:21;92730.06;;;15.47;85.69
57248;BME280;55809;46.618;10.764;2022-09-09T04:13:48;92679.88;;;15.22;85.12
57248;BME280;55809;46.618;10.764;2022-09-09T04:16:15;92697.81;;;15.20;85.27
57248;BME280;55809;46.618;10.764;2022-09-09T04:18:42;92721.75;;;15.25;85.88
57248;BME280;55809;46.618;10.764;2022-09-09T04:21:10;92719.38;;;15.27;85.70
57248;BME280;55809;46.618;10.764;2022-09-09T04:23:37;92677.59;;;15.08;84.89
57248;BME280;55809;46.618;10.764;2022-09-09T04:26:06;92732.66;;;15.38;85.08
57248;BME280;55809;46.618;10.764;2022-09-09T04:28:36;92742.31;;;15.39;85.20
57248;BME280;55809;46.618;10.764;2022-09-09T04:31:06;92760.41;;;15.45;84.31
57248;BME280;55809;46.618;10.764;2022-09-09T04:33:34;92773.69;;;15.56;83.58
57248;BME280;55809;46.618;10.764;2022-09-09T04:36:02;92777.59;;;15.55;83.61
57248;BME280;55809;46.618;10.764;2022-09-09T04:38:29;92781.53;;;15.54;83.83
57248;BME280;55809;46.618;10.764;2022-09-09T04:40:56;92785.44;;;15.53;84.47
57248;BME280;55809;46.618;10.764;2022-09-09T04:43:26;92779.03;;;15.47;85.54
57248;BME280;55809;46.618;10.764;2022-09-09T04:45:53;92770.28;;;15.39;86.27
57248;BME280;55809;46.618;10.764;2022-09-09T04:48:20;92759.41;;;15.39;85.92
57248;BME280;55809;46.618;10.764;2022-09-09T04:50:54;92751.56;;;15.29;86.36
57248;BME280;55809;46.618;10.764;2022-09-09T04:53:22;92743.06;;;15.27;86.42
57248;BME280;55809;46.618;10.764;2022-09-09T04:55:50;92754.63;;;15.31;86.71
57248;BME280;55809;46.618;10.764;2022-09-09T04:58:18;92742.31;;;15.26;86.73
57248;BME280;55809;46.618;10.764;2022-09-09T05:00:48;92747.53;;;15.33;86.63
57248;BME280;55809;46.618;10.764;2022-09-09T05:03:17;92754.06;;;15.36;86.41
57248;BME280;55809;46.618;10.764;2022-09-09T05:05:44;92760.16;;;15.40;86.39
57248;BME280;55809;46.618;10.764;2022-09-09T05:08:11;92751.47;;;15.45;86.37
57248;BME280;55809;46.618;10.764;2022-09-09T05:10:38;92749.53;;;15.45;86.51
57248;BME280;55809;46.618;10.764;2022-09-09T05:13:07;92755.28;;;15.47;86.53
57248;BME280;55809;46.618;10.764;2022-09-09T05:15:34;92763.69;;;15.53;86.12
57248;BME280;55809;46.618;10.764;2022-09-09T05:18:03;92766.41;;;15.53;85.92
57248;BME280;55809;46.618;10.764;2022-09-09T05:20:30;92771.41;;;15.55;85.77
57248;BME280;55809;46.618;10.764;2022-09-09T05:22:57;92778.38;;;15.56;85.72
57248;BME280;55809;46.618;10.764;2022-09-09T05:25:24;92783.16;;;15.52;85.50
57248;BME280;55809;46.618;10.764;2022-09-09T05:27:51;92773.88;;;15.49;85.77
57248;BME280;55809;46.618;10.764;2022-09-09T05:30:19;92787.38;;;15.53;85.79
57248;BME280;55809;46.618;10.764;2022-09-09T05:32:47;92799.91;;;15.50;86.28
57248;BME280;55809;46.618;10.764;2022-09-09T05:35:15;92789.00;;;15.37;85.61
57248;BME280;55809;46.618;10.764;2022-09-09T05:37:44;92800.34;;;15.48;85.64
57248;BME280;55809;46.618;10.764;2022-09-09T05:40:13;92798.38;;;15.49;85.28
57248;BME280;55809;46.618;10.764;2022-09-09T05:42:40;92804.16;;;15.51;85.15
57248;BME280;55809;46.618;10.764;2022-09-09T05:45:08;92798.25;;;15.53;85.31
57248;BME280;55809;46.618;10.764;2022-09-09T05:47:36;92809.84;;;15.57;85.17
57248;BME280;55809;46.618;10.764;2022-09-09T05:50:04;92814.31;;;15.63;84.22
57248;BME280;55809;46.618;10.764;2022-09-09T05:52:32;92770.28;;;15.39;84.32
57248;BME280;55809;46.618;10.764;2022-09-09T05:54:59;92802.22;;;15.64;84.29
57248;BME280;55809;46.618;10.764;2022-09-09T05:57:26;92804.59;;;15.62;84.75
57248;BME280;55809;46.618;10.764;2022-09-09T05:59:53;92811.69;;;15.60;85.59
57248;BME280;55809;46.618;10.764;2022-09-09T06:02:20;92784.63;;;15.27;86.57
57248;BME280;55809;46.618;10.764;2022-09-09T06:04:47;92817.28;;;15.40;86.65
57248;BME280;55809;46.618;10.764;2022-09-09T06:07:14;92819.53;;;15.29;87.46
57248;BME280;55809;46.618;10.764;2022-09-09T06:09:43;92812.69;;;15.24;88.58
57248;BME280;55809;46.618;10.764;2022-09-09T06:12:10;92822.00;;;15.23;88.50
57248;BME280;55809;46.618;10.764;2022-09-09T06:14:37;92782.78;;;14.95;88.24
57248;BME280;55809;46.618;10.764;2022-09-09T06:17:04;92826.38;;;15.20;89.68
57248;BME280;55809;46.618;10.764;2022-09-09T06:19:32;92830.81;;;15.14;89.82
57248;BME280;55809;46.618;10.764;2022-09-09T06:21:59;92839.97;;;15.20;89.89
57248;BME280;55809;46.618;10.764;2022-09-09T06:24:26;92837.25;;;15.20;89.93
57248;BME280;55809;46.618;10.764;2022-09-09T06:26:57;92817.59;;;15.00;89.96
57248;BME280;55809;46.618;10.764;2022-09-09T06:29:24;92841.59;;;15.18;89.97
57248;BME280;55809;46.618;10.764;2022-09-09T06:31:51;92841.69;;;15.14;88.98
57248;BME280;55809;46.618;10.764;2022-09-09T06:34:18;92848.59;;;15.02;89.36
57248;BME280;55809;46.618;10.764;2022-09-09T06:36:46;92848.59;;;15.02;89.23
57248;BME280;55809;46.618;10.764;2022-09-09T06:39:13;92848.06;;;15.08;89.26
57248;BME280;55809;46.618;10.764;2022-09-09T06:41:41;92832.56;;;14.92;89.72
57248;BME280;55809;46.618;10.764;2022-09-09T06:44:11;92849.28;;;14.90;90.31
57248;BME280;55809;46.618;10.764;2022-09-09T06:46:38;92843.94;;;14.87;90.38
57248;BME280;55809;46.618;10.764;2022-09-09T06:49:07;92837.44;;;14.84;90.12
57248;BME280;55809;46.618;10.764;2022-09-09T06:51:35;92868.16;;;14.97;90.33
57248;BME280;55809;46.618;10.764;2022-09-09T06:54:09;92867.63;;;15.02;89.69
57248;BME280;55809;46.618;10.764;2022-09-09T06:56:39;92826.91;;;14.70;89.88
57248;BME280;55809;46.618;10.764;2022-09-09T06:59:08;92853.88;;;14.93;88.71
57248;BME280;55809;46.618;10.764;2022-09-09T07:01:38;92870.97;;;14.94;90.02
57248;BME280;55809;46.618;10.764;2022-09-09T07:04:06;92853.47;;;14.78;90.33
57248;BME280;55809;46.618;10.764;2022-09-09T07:06:36;92870.69;;;14.88;90.03
57248;BME280;55809;46.618;10.764;2022-09-09T07:09:09;92882.16;;;14.96;90.43
57248;BME280;55809;46.618;10.764;2022-09-09T07:11:39;92885.97;;;14.98;89.92
57248;BME280;55809;46.618;10.764;2022-09-09T07:14:08;92886.22;;;15.04;88.86
57248;BME280;55809;46.618;10.764;2022-09-09T07:16:40;92879.03;;;14.97;88.84
57248;BME280;55809;46.618;10.764;2022-09-09T07:19:09;92883.16;;;15.02;89.23
57248;BME280;55809;46.618;10.764;2022-09-09T07:21:38;92860.03;;;14.81;88.62
57248;BME280;55809;46.618;10.764;2022-09-09T07:24:05;92887.84;;;15.01;88.81
57248;BME280;55809;46.618;10.764;2022-09-09T07:26:36;92894.88;;;14.99;88.96
57248;BME280;55809;46.618;10.764;2022-09-09T07:29:05;92847.47;;;14.71;88.48
57248;BME280;55809;46.618;10.764;2022-09-09T07:31:34;92889.88;;;14.97;87.75
57248;BME280;55809;46.618;10.764;2022-09-09T07:34:04;92893.97;;;14.89;87.20
57248;BME280;55809;46.618;10.764;2022-09-09T07:36:33;92898.72;;;14.85;86.45
57248;BME280;55809;46.618;10.764;2022-09-09T07:39:03;92901.53;;;14.82;86.02
57248;BME280;55809;46.618;10.764;2022-09-09T07:41:34;92901.38;;;14.72;86.56
57248;BME280;55809;46.618;10.764;2022-09-09T07:44:09;92921.81;;;14.77;85.86
57248;BME280;55809;46.618;10.764;2022-09-09T07:46:38;92921.31;;;14.66;86.74
57248;BME280;55809;46.618;10.764;2022-09-09T07:49:09;92914.09;;;14.59;86.88
57248;BME280;55809;46.618;10.764;2022-09-09T07:51:37;92929.47;;;14.66;87.67
57248;BME280;55809;46.618;10.764;2022-09-09T07:54:07;92936.00;;;14.68;87.73
57248;BME280;55809;46.618;10.764;2022-09-09T07:56:35;92936.75;;;14.69;87.91
57248;BME280;55809;46.618;10.764;2022-09-09T07:59:03;92913.88;;;14.50;88.44
57248;BME280;55809;46.618;10.764;2022-09-09T08:01:35;92937.97;;;14.68;88.76
57248;BME280;55809;46.618;10.764;2022-09-09T08:04:06;92951.88;;;14.70;88.69
57248;BME280;55809;46.618;10.764;2022-09-09T08:06:39;92924.38;;;14.51;88.25
57248;BME280;55809;46.618;10.764;2022-09-09T08:09:08;92957.13;;;14.77;87.74
57248;BME280;55809;46.618;10.764;2022-09-09T08:11:36;92955.88;;;14.82;88.42
57248;BME280;55809;46.618;10.764;2022-09-09T08:14:05;92956.28;;;14.80;87.44
57248;BME280;55809;46.618;10.764;2022-09-09T08:16:36;92962.84;;;14.83;87.51
57248;BME280;55809;46.618;10.764;2022-09-09T08:19:04;92966.31;;;14.83;87.18
57248;BME280;55809;46.618;10.764;2022-09-09T08:21:36;92966.31;;;14.83;87.82
57248;BME280;55809;46.618;10.764;2022-09-09T08:24:06;92965.91;;;14.85;88.33
57248;BME280;55809;46.618;10.764;2022-09-09T08:26:36;92970.13;;;14.86;87.62
57248;BME280;55809;46.618;10.764;2022-09-09T08:29:05;92975.16;;;14.87;87.99
57248;BME280;55809;46.618;10.764;2022-09-09T08:31:34;92978.56;;;14.91;87.90
57248;BME280;55809;46.618;10.764;2022-09-09T08:34:04;92977.28;;;14.96;88.43
57248;BME280;55809;46.618;10.764;2022-09-09T08:36:37;92976.88;;;14.97;88.36
57248;BME280;55809;46.618;10.764;2022-09-09T08:39:06;92966.94;;;14.91;88.98
57248;BME280;55809;46.618;10.764;2022-09-09T08:42:00;92970.06;;;15.06;88.74
57248;BME280;55809;46.618;10.764;2022-09-09T08:44:38;92979.63;;;15.10;87.96
57248;BME280;55809;46.618;10.764;2022-09-09T08:47:14;92978.72;;;15.17;88.36
57248;BME280;55809;46.618;10.764;2022-09-09T08:49:55;92968.00;;;15.26;87.49
57248;BME280;55809;46.618;10.764;2022-09-09T08:52:30;92966.38;;;15.29;88.02
57248;BME280;55809;46.618;10.764;2022-09-09T08:55:05;92967.06;;;15.33;87.50
57248;BME280;55809;46.618;10.764;2022-09-09T08:57:39;92946.84;;;15.34;87.88
57248;BME280;55809;46.618;10.764;2022-09-09T09:00:09;92950.03;;;15.45;87.70
57248;BME280;55809;46.618;10.764;2022-09-09T09:02:38;92945.34;;;15.45;88.24
57248;BME280;55809;46.618;10.764;2022-09-09T09:05:16;92947.56;;;15.51;88.91
57248;BME280;55809;46.618;10.764;2022-09-09T09:07:58;92942.44;;;15.53;88.76
57248;BME280;55809;46.618;10.764;2022-09-09T09:10:41;92945.84;;;15.57;88.03
57248;BME280;55809;46.618;10.764;2022-09-09T09:13:15;92942.59;;;15.62;87.19
57248;BME280;55809;46.618;10.764;2022-09-09T09:15:44;92911.66;;;15.56;84.89
57248;BME280;55809;46.618;10.764;2022-09-09T09:18:16;92922.09;;;15.74;84.63
57248;BME280;55809;46.618;10.764;2022-09-09T09:20:51;92893.31;;;15.60;84.33
57248;BME280;55809;46.618;10.764;2022-09-09T09:23:24;92889.00;;;15.75;87.00
57248;BME280;55809;46.618;10.764;2022-09-09T09:25:56;92913.66;;;15.97;88.02
57248;BME280;55809;46.618;10.764;2022-09-09T09:28:29;92898.63;;;15.92;85.38
57248;BME280;55809;46.618;10.764;2022-09-09T09:30:59;92912.59;;;16.07;86.75
57248;BME280;55809;46.618;10.764;2022-09-09T09:33:32;92892.50;;;15.88;84.60
57248;BME280;55809;46.618;10.764;2022-09-09T09:36:02;92909.34;;;16.12;83.39
57248;BME280;55809;46.618;10.764;2022-09-09T09:38:33;92874.38;;;16.11;83.31
57248;BME280;55809;46.618;10.764;2022-09-09T09:41:01;92882.88;;;16.38;80.58
57248;BME280;55809;46.618;10.764;2022-09-09T09:43:30;92887.31;;;16.71;78.71
57248;BME280;55809;46.618;10.764;2022-09-09T09:45:58;92867.75;;;16.98;76.64
57248;BME280;55809;46.618;10.764;2022-09-09T09:48:26;92899.50;;;17.39;77.41
57248;BME280;55809;46.618;10.764;2022-09-09T09:50:55;92899.78;;;17.54;78.54
57248;BME280;55809;46.618;10.764;2022-09-09T09:53:26;92866.13;;;17.57;80.05
57248;BME280;55809;46.618;10.764;2022-09-09T09:55:57;92897.94;;;18.48;75.16
57248;BME280;55809;46.618;10.764;2022-09-09T09:58:26;92897.50;;;18.49;74.82
57248;BME280;55809;46.618;10.764;2022-09-09T10:00:56;92893.22;;;18.48;75.34
57248;BME280;55809;46.618;10.764;2022-09-09T10:03:27;92894.63;;;18.53;74.12
57248;BME280;55809;46.618;10.764;2022-09-09T10:05:55;92890.78;;;18.41;73.47
57248;BME280;55809;46.618;10.764;2022-09-09T10:08:23;92894.69;;;18.31;74.35
57248;BME280;55809;46.618;10.764;2022-09-09T10:11:12;92891.13;;;18.21;74.84
57248;BME280;55809;46.618;10.764;2022-09-09T10:13:50;92892.91;;;18.15;75.11
57248;BME280;55809;46.618;10.764;2022-09-09T10:16:33;92889.28;;;18.18;74.94
57248;BME280;55809;46.618;10.764;2022-09-09T10:19:09;92883.25;;;18.23;75.90
57248;BME280;55809;46.618;10.764;2022-09-09T10:22:02;92880.25;;;18.31;74.42
57248;BME280;55809;46.618;10.764;2022-09-09T10:27:54;92879.59;;;18.58;70.20
57248;BME280;55809;46.618;10.764;2022-09-09T10:30:33;92883.75;;;18.71;71.95
57248;BME280;55809;46.618;10.764;2022-09-09T10:33:07;92877.91;;;18.82;68.80
57248;BME280;55809;46.618;10.764;2022-09-09T10:35:41;92876.13;;;19.80;65.96
57248;BME280;55809;46.618;10.764;2022-09-09T10:38:16;92872.28;;;20.14;63.79
57248;BME280;55809;46.618;10.764;2022-09-09T10:40:59;92859.28;;;20.76;61.18
57248;BME280;55809;46.618;10.764;2022-09-09T10:43:45;92863.19;;;21.32;65.54
57248;BME280;55809;46.618;10.764;2022-09-09T10:46:20;92852.81;;;21.75;62.23
57248;BME280;55809;46.618;10.764;2022-09-09T10:49:07;92850.94;;;21.96;61.75
57248;BME280;55809;46.618;10.764;2022-09-09T10:51:42;92845.38;;;21.51;63.07
57248;BME280;55809;46.618;10.764;2022-09-09T10:54:24;92849.97;;;21.84;62.42
57248;BME280;55809;46.618;10.764;2022-09-09T10:56:59;92838.50;;;21.71;61.68
57248;BME280;55809;46.618;10.764;2022-09-09T10:59:34;92840.59;;;21.76;62.20
57248;BME280;55809;46.618;10.764;2022-09-09T11:02:10;92837.94;;;21.96;63.33
57248;BME280;55809;46.618;10.764;2022-09-09T11:04:43;92821.75;;;22.13;59.98
57248;BME280;55809;46.618;10.764;2022-09-09T11:07:18;92840.88;;;22.37;60.54
57248;BME280;55809;46.618;10.764;2022-09-09T11:09:55;92833.13;;;22.21;59.30
57248;BME280;55809;46.618;10.764;2022-09-09T11:12:27;92809.41;;;21.49;59.88
57248;BME280;55809;46.618;10.764;2022-09-09T11:15:03;92810.13;;;21.35;60.17
57248;BME280;55809;46.618;10.764;2022-09-09T11:17:36;92825.78;;;21.20;59.38
57248;BME280;55809;46.618;10.764;2022-09-09T11:20:11;92823.09;;;21.11;59.39
57248;BME280;55809;46.618;10.764;2022-09-09T11:22:44;92816.09;;;21.10;60.61
57248;BME280;55809;46.618;10.764;2022-09-09T11:25:16;92808.56;;;20.95;58.35
57248;BME280;55809;46.618;10.764;2022-09-09T11:27:55;92796.56;;;20.93;59.83
57248;BME280;55809;46.618;10.764;2022-09-09T11:30:28;92805.44;;;21.02;59.06
57248;BME280;55809;46.618;10.764;2022-09-09T11:33:34;92804.50;;;21.05;58.82
57248;BME280;55809;46.618;10.764;2022-09-09T11:36:44;92799.19;;;21.26;54.27
57248;BME280;55809;46.618;10.764;2022-09-09T11:39:44;92792.78;;;21.29;56.80
57248;BME280;55809;46.618;10.764;2022-09-09T11:42:19;92796.84;;;21.34;56.77
57248;BME280;55809;46.618;10.764;2022-09-09T11:44:47;92789.31;;;21.43;57.31
57248;BME280;55809;46.618;10.764;2022-09-09T11:47:23;92787.81;;;21.57;56.49
57248;BME280;55809;46.618;10.764;2022-09-09T11:49:54;92787.69;;;21.51;58.52
57248;BME280;55809;46.618;10.764;2022-09-09T11:52:23;92788.31;;;21.31;59.29
57248;BME280;55809;46.618;10.764;2022-09-09T11:54:55;92787.03;;;21.03;59.27
57248;BME280;55809;46.618;10.764;2022-09-09T11:57:26;92787.38;;;20.72;59.78
57248;BME280;55809;46.618;10.764;2022-09-09T11:59:56;92776.41;;;20.72;59.26
57248;BME280;55809;46.618;10.764;2022-09-09T12:02:28;92765.38;;;20.81;57.92
57248;BME280;55809;46.618;10.764;2022-09-09T12:04:59;92754.69;;;20.83;57.22
57248;BME280;55809;46.618;10.764;2022-09-09T12:07:34;92766.09;;;20.67;58.90
57248;BME280;55809;46.618;10.764;2022-09-09T12:10:05;92758.59;;;20.67;60.07
57248;BME280;55809;46.618;10.764;2022-09-09T12:12:45;92750.66;;;20.69;57.96
57248;BME280;55809;46.618;10.764;2022-09-09T12:15:25;92750.00;;;20.50;58.64
57248;BME280;55809;46.618;10.764;2022-09-09T12:17:57;92743.91;;;20.46;58.07
57248;BME280;55809;46.618;10.764;2022-09-09T12:20:32;92749.75;;;20.39;56.88
57248;BME280;55809;46.618;10.764;2022-09-09T12:23:22;92741.41;;;20.33;56.00
57248;BME280;55809;46.618;10.764;2022-09-09T12:26:03;92730.88;;;20.08;55.63
57248;BME280;55809;46.618;10.764;2022-09-09T12:28:44;92718.38;;;20.07;57.57
57248;BME280;55809;46.618;10.764;2022-09-09T12:31:16;92698.81;;;19.99;57.12
57248;BME280;55809;46.618;10.764;2022-09-09T12:33:49;92721.44;;;20.09;60.10
57248;BME280;55809;46.618;10.764;2022-09-09T12:36:20;92716.09;;;20.14;59.68
57248;BME280;55809;46.618;10.764;2022-09-09T12:38:48;92705.69;;;19.95;60.11
57248;BME280;55809;46.618;10.764;2022-09-09T12:41:21;92711.25;;;20.00;60.88
57248;BME280;55809;46.618;10.764;2022-09-09T12:43:50;92703.38;;;19.93;60.11
57248;BME280;55809;46.618;10.764;2022-09-09T12:46:24;92702.81;;;19.89;57.99
57248;BME280;55809;46.618;10.764;2022-09-09T12:48:57;92693.97;;;19.94;60.71
57248;BME280;55809;46.618;10.764;2022-09-09T12:51:28;92676.84;;;19.75;57.52
57248;BME280;55809;46.618;10.764;2022-09-09T12:53:58;92657.09;;;19.62;58.05
57248;BME280;55809;46.618;10.764;2022-09-09T12:56:27;92689.00;;;19.74;57.01
57248;BME280;55809;46.618;10.764;2022-09-09T12:58:58;92681.00;;;19.52;58.75
57248;BME280;55809;46.618;10.764;2022-09-09T13:01:28;92674.81;;;19.42;60.43
57248;BME280;55809;46.618;10.764;2022-09-09T13:03:57;92667.22;;;19.37;60.05
57248;BME280;55809;46.618;10.764;2022-09-09T13:06:25;92663.03;;;19.60;59.04
57248;BME280;55809;46.618;10.764;2022-09-09T13:08:54;92665.63;;;19.64;58.64
57248;BME280;55809;46.618;10.764;2022-09-09T13:11:24;92660.78;;;19.50;56.67
57248;BME280;55809;46.618;10.764;2022-09-09T13:13:55;92609.19;;;19.15;59.68
57248;BME280;55809;46.618;10.764;2022-09-09T13:16:25;92642.56;;;19.37;60.12
57248;BME280;55809;46.618;10.764;2022-09-09T13:18:57;92643.63;;;19.40;60.40